sensor_id;sensor_type;location;lat;lon;timestamp;temperature;humidity
19538;DHT22;9914;51.008;4.300;2023-04-16T00:01:27;8.50;99.90
19538;DHT22;9914;51.008;4.300;2023-04-16T00:03:53;8.50;99.90
19538;DHT22;9914;51.008;4.300;2023-04-16T00:06:19;8.40;99.90
19538;DHT22;9914;51.008;4.300;2023-04-16T00:08:45;8.40;99.90
19538;DHT22;9914;51.008;4.300;2023-04-16T00:11:11;8.40;99.90
19538;DHT22;9914;51.008;4.300;2023-04-16T00:13:36;8.40;99.90
19538;DHT22;9914;51.008;4.300;2023-04-16T00:16:02;8.40;99.90
19538;DHT22;9914;51.008;4.300;2023-04-16T00:18:28;8.70;99.90
19538;DHT22;9914;51.008;4.300;2023-04-16T00:20:53;8.70;99.90
19538;DHT22;9914;51.008;4.300;2023-04-16T00:23:19;8.60;99.90
19538;DHT22;9914;51.008;4.300;2023-04-16T00:25:45;8.40;99.90
19538;DHT22;9914;51.008;4.300;2023-04-16T00:28:11;8.40;99.90
19538;DHT22;9914;51.008;4.300;2023-04-16T00:30:37;8.40;99.90
19538;DHT22;9914;51.008;4.300;2023-04-16T00:33:02;8.40;99.90
19538;DHT22;9914;51.008;4.300;2023-04-16T00:35:29;8.50;99.90
19538;DHT22;9914;51.008;4.300;2023-04-16T00:37:54;8.50;99.90
19538;DHT22;9914;51.008;4.300;2023-04-16T00:40:20;8.50;99.90
19538;DHT22;9914;51.008;4.300;2023-04-16T00:42:46;8.40;99.90
19538;DHT22;9914;51.008;4.300;2023-04-16T00:45:11;8.30;99.90
19538;DHT22;9914;51.008;4.300;2023-04-16T00:47:37;8.40;99.90
19538;DHT22;9914;51.008;4.300;2023-04-16T00:50:03;8.60;99.90
19538;DHT22;9914;51.008;4.300;2023-04-16T00:52:31;8.50;99.90
19538;DHT22;9914;51.008;4.300;2023-04-16T00:54:58;8.50;99.90
19538;DHT22;9914;51.008;4.300;2023-04-16T00:57:23;8.50;99.90
19538;DHT22;9914;51.008;4.300;2023-04-16T00:59:49;8.50;99.90
19538;DHT22;9914;51.008;4.300;2023-04-16T01:02:15;8.50;99.90
19538;DHT22;9914;51.008;4.300;2023-04-16T01:04:41;8.70;99.90
19538;DHT22;9914;51.008;4.300;2023-04-16T01:07:07;8.60;99.90
19538;DHT22;9914;51.008;4.300;2023-04-16T01:09:32;8.50;99.90
19538;DHT22;9914;51.008;4.300;2023-04-16T01:11:58;8.50;99.90
19538;DHT22;9914;51.008;4.300;2023-04-16T01:14:23;8.50;99.90
19538;DHT22;9914;51.008;4.300;2023-04-16T01:16:49;8.50;99.90
19538;DHT22;9914;51.008;4.300;2023-04-16T01:19:15;8.40;99.90
19538;DHT22;9914;51.008;4.300;2023-04-16T01:21:40;8.50;99.90
19538;DHT22;9914;51.008;4.300;2023-04-16T01:24:06;8.50;99.90
19538;DHT22;9914;51.008;4.300;2023-04-16T01:26:32;8.50;99.90
19538;DHT22;9914;51.008;4.300;2023-04-16T01:28:58;8.50;99.90
19538;DHT22;9914;51.008;4.300;2023-04-16T01:31:24;8.40;99.90
19538;DHT22;9914;51.008;4.300;2023-04-16T01:33:50;8.40;99.90
19538;DHT22;9914;51.008;4.300;2023-04-16T01:36:15;8.40;99.90
19538;DHT22;9914;51.008;4.300;2023-04-16T01:38:41;8.40;99.90
19538;DHT22;9914;51.008;4.300;2023-04-16T01:41:07;8.40;99.90
19538;DHT22;9914;51.008;4.300;2023-04-16T01:43:32;8.40;99.90
19538;DHT22;9914;51.008;4.300;2023-04-16T01:46:12;8.40;99.90
19538;DHT22;9914;51.008;4.300;2023-04-16T01:48:38;8.50;99.90
19538;DHT22;9914;51.008;4.300;2023-04-16T01:51:04;8.50;99.90
19538;DHT22;9914;51.008;4.300;2023-04-16T01:53:30;8.50;99.90
19538;DHT22;9914;51.008;4.300;2023-04-16T01:55:55;8.60;99.90
19538;DHT22;9914;51.008;4.300;2023-04-16T01:58:21;8.50;99.90
19538;DHT22;9914;51.008;4.300;2023-04-16T02:00:46;8.70;99.90
19538;DHT22;9914;51.008;4.300;2023-04-16T02:03:12;8.50;99.90
19538;DHT22;9914;51.008;4.300;2023-04-16T02:05:38;8.60;99.90
19538;DHT22;9914;51.008;4.300;2023-04-16T02:08:03;8.60;99.90
19538;DHT22;9914;51.008;4.300;2023-04-16T02:10:29;8.50;99.90
19538;DHT22;9914;51.008;4.300;2023-04-16T02:12:55;8.40;99.90
19538;DHT22;9914;51.008;4.300;2023-04-16T02:15:20;8.60;99.90
19538;DHT22;9914;51.008;4.300;2023-04-16T02:17:47;8.60;99.90
19538;DHT22;9914;51.008;4.300;2023-04-16T02:20:15;8.50;99.90
19538;DHT22;9914;51.008;4.300;2023-04-16T02:22:42;8.50;99.90
19538;DHT22;9914;51.008;4.300;2023-04-16T02:25:07;8.60;99.90
19538;DHT22;9914;51.008;4.300;2023-04-16T02:27:33;8.60;99.90
19538;DHT22;9914;51.008;4.300;2023-04-16T02:29:59;8.70;99.90
19538;DHT22;9914;51.008;4.300;2023-04-16T02:32:24;8.60;99.90
19538;DHT22;9914;51.008;4.300;2023-04-16T02:34:50;8.70;99.90
19538;DHT22;9914;51.008;4.300;2023-04-16T02:37:15;8.70;99.90
19538;DHT22;9914;51.008;4.300;2023-04-16T02:39:41;8.80;99.90
19538;DHT22;9914;51.008;4.300;2023-04-16T02:42:08;8.90;99.90
19538;DHT22;9914;51.008;4.300;2023-04-16T02:44:33;8.80;99.90
19538;DHT22;9914;51.008;4.300;2023-04-16T02:46:59;8.70;99.90
19538;DHT22;9914;51.008;4.300;2023-04-16T02:49:24;8.80;99.90
19538;DHT22;9914;51.008;4.300;2023-04-16T02:51:50;8.70;99.90
19538;DHT22;9914;51.008;4.300;2023-04-16T02:54:16;8.80;99.90
19538;DHT22;9914;51.008;4.300;2023-04-16T02:56:41;8.70;99.90
19538;DHT22;9914;51.008;4.300;2023-04-16T02:59:07;8.90;99.90
19538;DHT22;9914;51.008;4.300;2023-04-16T03:01:32;9.10;99.90
19538;DHT22;9914;51.008;4.300;2023-04-16T03:03:58;8.90;99.90
19538;DHT22;9914;51.008;4.300;2023-04-16T03:06:24;8.80;99.90
19538;DHT22;9914;51.008;4.300;2023-04-16T03:08:50;9.00;99.90
19538;DHT22;9914;51.008;4.300;2023-04-16T03:11:16;9.00;99.90
19538;DHT22;9914;51.008;4.300;2023-04-16T03:13:42;9.40;99.90
19538;DHT22;9914;51.008;4.300;2023-04-16T03:16:08;9.40;99.90
19538;DHT22;9914;51.008;4.300;2023-04-16T03:18:33;9.30;99.90
19538;DHT22;9914;51.008;4.300;2023-04-16T03:20:59;9.40;99.90
19538;DHT22;9914;51.008;4.300;2023-04-16T03:23:24;9.40;99.90
19538;DHT22;9914;51.008;4.300;2023-04-16T03:25:50;9.30;99.90
19538;DHT22;9914;51.008;4.300;2023-04-16T03:28:16;8.90;99.90
19538;DHT22;9914;51.008;4.300;2023-04-16T03:30:41;8.80;99.90
19538;DHT22;9914;51.008;4.300;2023-04-16T03:33:07;8.90;99.90
19538;DHT22;9914;51.008;4.300;2023-04-16T03:35:32;8.90;99.90
19538;DHT22;9914;51.008;4.300;2023-04-16T03:37:58;9.40;99.90
19538;DHT22;9914;51.008;4.300;2023-04-16T03:40:24;8.90;99.90
19538;DHT22;9914;51.008;4.300;2023-04-16T03:42:49;8.70;99.90
19538;DHT22;9914;51.008;4.300;2023-04-16T03:45:15;8.80;99.90
19538;DHT22;9914;51.008;4.300;2023-04-16T03:47:41;8.70;99.90
19538;DHT22;9914;51.008;4.300;2023-04-16T03:50:06;9.10;99.90
19538;DHT22;9914;51.008;4.300;2023-04-16T03:52:32;8.80;99.90
19538;DHT22;9914;51.008;4.300;2023-04-16T03:54:58;8.70;99.90
19538;DHT22;9914;51.008;4.300;2023-04-16T03:57:23;8.90;99.90
19538;DHT22;9914;51.008;4.300;2023-04-16T03:59:49;8.70;99.90
19538;DHT22;9914;51.008;4.300;2023-04-16T04:02:14;8.60;99.90
19538;DHT22;9914;51.008;4.300;2023-04-16T04:04:40;8.50;99.90
19538;DHT22;9914;51.008;4.300;2023-04-16T04:07:05;8.50;99.90
19538;DHT22;9914;51.008;4.300;2023-04-16T04:09:31;8.50;99.90
19538;DHT22;9914;51.008;4.300;2023-04-16T04:11:58;8.60;99.90
19538;DHT22;9914;51.008;4.300;2023-04-16T04:14:23;8.70;99.90
19538;DHT22;9914;51.008;4.300;2023-04-16T04:16:49;8.80;99.90
19538;DHT22;9914;51.008;4.300;2023-04-16T04:19:15;8.70;99.90
19538;DHT22;9914;51.008;4.300;2023-04-16T04:21:40;8.70;99.90
19538;DHT22;9914;51.008;4.300;2023-04-16T04:24:06;8.90;99.90
19538;DHT22;9914;51.008;4.300;2023-04-16T04:26:31;8.90;99.90
19538;DHT22;9914;51.008;4.300;2023-04-16T04:28:57;8.70;99.90
19538;DHT22;9914;51.008;4.300;2023-04-16T04:31:22;8.70;99.90
19538;DHT22;9914;51.008;4.300;2023-04-16T04:33:48;8.70;99.90
19538;DHT22;9914;51.008;4.300;2023-04-16T04:36:13;8.80;99.90
19538;DHT22;9914;51.008;4.300;2023-04-16T04:38:39;9.00;99.90
19538;DHT22;9914;51.008;4.300;2023-04-16T04:41:05;9.00;99.90
19538;DHT22;9914;51.008;4.300;2023-04-16T04:43:30;8.80;99.90
19538;DHT22;9914;51.008;4.300;2023-04-16T04:45:56;8.60;99.90
19538;DHT22;9914;51.008;4.300;2023-04-16T04:48:22;8.60;99.90
19538;DHT22;9914;51.008;4.300;2023-04-16T04:50:51;8.60;99.90
19538;DHT22;9914;51.008;4.300;2023-04-16T04:53:17;8.60;99.90
19538;DHT22;9914;51.008;4.300;2023-04-16T04:55:42;8.60;99.90
19538;DHT22;9914;51.008;4.300;2023-04-16T04:58:08;8.60;99.90
19538;DHT22;9914;51.008;4.300;2023-04-16T05:00:34;8.50;99.90
19538;DHT22;9914;51.008;4.300;2023-04-16T05:03:09;8.60;99.90
19538;DHT22;9914;51.008;4.300;2023-04-16T05:05:35;8.60;99.90
19538;DHT22;9914;51.008;4.300;2023-04-16T05:08:01;8.50;99.90
19538;DHT22;9914;51.008;4.300;2023-04-16T05:10:26;8.60;99.90
19538;DHT22;9914;51.008;4.300;2023-04-16T05:12:52;8.90;99.90
19538;DHT22;9914;51.008;4.300;2023-04-16T05:15:18;8.70;99.90
19538;DHT22;9914;51.008;4.300;2023-04-16T05:17:43;8.90;99.90
19538;DHT22;9914;51.008;4.300;2023-04-16T05:20:09;8.70;99.90
19538;DHT22;9914;51.008;4.300;2023-04-16T05:22:35;8.70;99.90
19538;DHT22;9914;51.008;4.300;2023-04-16T05:25:00;8.60;99.90
19538;DHT22;9914;51.008;4.300;2023-04-16T05:27:26;8.60;99.90
19538;DHT22;9914;51.008;4.300;2023-04-16T05:29:51;8.60;99.90
19538;DHT22;9914;51.008;4.300;2023-04-16T05:32:17;8.60;99.90
19538;DHT22;9914;51.008;4.300;2023-04-16T05:34:43;8.70;99.90
19538;DHT22;9914;51.008;4.300;2023-04-16T05:37:08;8.60;99.90
19538;DHT22;9914;51.008;4.300;2023-04-16T05:39:34;8.70;99.90
19538;DHT22;9914;51.008;4.300;2023-04-16T05:41:59;8.60;99.90
19538;DHT22;9914;51.008;4.300;2023-04-16T05:44:25;8.70;99.90
19538;DHT22;9914;51.008;4.300;2023-04-16T05:46:50;8.70;99.90
19538;DHT22;9914;51.008;4.300;2023-04-16T05:49:17;8.60;99.90
19538;DHT22;9914;51.008;4.300;2023-04-16T05:51:46;8.60;99.90
19538;DHT22;9914;51.008;4.300;2023-04-16T05:54:12;8.70;99.90
19538;DHT22;9914;51.008;4.300;2023-04-16T05:56:38;8.60;99.90
19538;DHT22;9914;51.008;4.300;2023-04-16T05:59:03;8.60;99.90
19538;DHT22;9914;51.008;4.300;2023-04-16T06:01:29;8.70;99.90
19538;DHT22;9914;51.008;4.300;2023-04-16T06:03:54;8.70;99.90
19538;DHT22;9914;51.008;4.300;2023-04-16T06:06:20;8.70;99.90
19538;DHT22;9914;51.008;4.300;2023-04-16T06:08:46;9.00;99.90
19538;DHT22;9914;51.008;4.300;2023-04-16T06:11:11;9.10;99.90
19538;DHT22;9914;51.008;4.300;2023-04-16T06:13:37;8.90;99.90
19538;DHT22;9914;51.008;4.300;2023-04-16T06:16:03;8.80;99.90
19538;DHT22;9914;51.008;4.300;2023-04-16T06:18:29;8.80;99.90
19538;DHT22;9914;51.008;4.300;2023-04-16T06:20:55;9.00;99.90
19538;DHT22;9914;51.008;4.300;2023-04-16T06:23:20;8.90;99.90
19538;DHT22;9914;51.008;4.300;2023-04-16T06:25:46;8.70;99.90
19538;DHT22;9914;51.008;4.300;2023-04-16T06:28:11;8.60;99.90
19538;DHT22;9914;51.008;4.300;2023-04-16T06:30:38;8.50;99.90
19538;DHT22;9914;51.008;4.300;2023-04-16T06:33:03;8.50;99.90
19538;DHT22;9914;51.008;4.300;2023-04-16T06:35:29;8.60;99.90
19538;DHT22;9914;51.008;4.300;2023-04-16T06:37:55;8.50;99.90
19538;DHT22;9914;51.008;4.300;2023-04-16T06:40:21;8.40;99.90
19538;DHT22;9914;51.008;4.300;2023-04-16T06:42:46;8.60;99.90
19538;DHT22;9914;51.008;4.300;2023-04-16T06:45:12;8.80;99.90
19538;DHT22;9914;51.008;4.300;2023-04-16T06:47:38;8.80;99.90
19538;DHT22;9914;51.008;4.300;2023-04-16T06:50:04;8.70;99.90
19538;DHT22;9914;51.008;4.300;2023-04-16T06:52:29;8.70;99.90
19538;DHT22;9914;51.008;4.300;2023-04-16T06:54:55;8.60;99.90
19538;DHT22;9914;51.008;4.300;2023-04-16T06:57:21;8.60;99.90
19538;DHT22;9914;51.008;4.300;2023-04-16T06:59:46;8.60;99.90
19538;DHT22;9914;51.008;4.300;2023-04-16T07:02:12;8.60;99.90
19538;DHT22;9914;51.008;4.300;2023-04-16T07:04:38;8.60;99.90
19538;DHT22;9914;51.008;4.300;2023-04-16T07:07:03;8.60;99.90
19538;DHT22;9914;51.008;4.300;2023-04-16T07:09:29;8.60;99.90
19538;DHT22;9914;51.008;4.300;2023-04-16T07:11:54;8.60;99.90
19538;DHT22;9914;51.008;4.300;2023-04-16T07:14:20;8.50;99.90
19538;DHT22;9914;51.008;4.300;2023-04-16T07:16:46;8.50;99.90
19538;DHT22;9914;51.008;4.300;2023-04-16T07:19:11;8.60;99.90
19538;DHT22;9914;51.008;4.300;2023-04-16T07:21:37;8.50;99.90
19538;DHT22;9914;51.008;4.300;2023-04-16T07:24:03;8.60;99.90
19538;DHT22;9914;51.008;4.300;2023-04-16T07:26:28;8.90;99.90
19538;DHT22;9914;51.008;4.300;2023-04-16T07:28:54;8.70;99.90
19538;DHT22;9914;51.008;4.300;2023-04-16T07:31:20;8.60;99.90
19538;DHT22;9914;51.008;4.300;2023-04-16T07:33:45;8.70;99.90
19538;DHT22;9914;51.008;4.300;2023-04-16T07:36:11;8.80;99.90
19538;DHT22;9914;51.008;4.300;2023-04-16T07:38:36;8.70;99.90
19538;DHT22;9914;51.008;4.300;2023-04-16T07:41:02;8.60;99.90
19538;DHT22;9914;51.008;4.300;2023-04-16T07:43:28;8.50;99.90
19538;DHT22;9914;51.008;4.300;2023-04-16T07:45:53;8.50;99.90
19538;DHT22;9914;51.008;4.300;2023-04-16T07:48:20;8.50;99.90
19538;DHT22;9914;51.008;4.300;2023-04-16T07:50:46;8.50;99.90
19538;DHT22;9914;51.008;4.300;2023-04-16T07:53:11;8.50;99.90
19538;DHT22;9914;51.008;4.300;2023-04-16T07:55:37;8.50;99.90
19538;DHT22;9914;51.008;4.300;2023-04-16T07:58:02;8.40;99.90
19538;DHT22;9914;51.008;4.300;2023-04-16T08:00:28;8.30;99.90
19538;DHT22;9914;51.008;4.300;2023-04-16T08:02:54;8.20;99.90
19538;DHT22;9914;51.008;4.300;2023-04-16T08:05:20;8.30;99.90
19538;DHT22;9914;51.008;4.300;2023-04-16T08:07:45;8.30;99.90
19538;DHT22;9914;51.008;4.300;2023-04-16T08:10:11;8.20;99.90
19538;DHT22;9914;51.008;4.300;2023-04-16T08:12:37;8.30;99.90
19538;DHT22;9914;51.008;4.300;2023-04-16T08:15:03;8.20;99.90
19538;DHT22;9914;51.008;4.300;2023-04-16T08:17:29;8.20;99.90
19538;DHT22;9914;51.008;4.300;2023-04-16T08:19:54;8.30;99.90
19538;DHT22;9914;51.008;4.300;2023-04-16T08:22:20;8.30;99.90
19538;DHT22;9914;51.008;4.300;2023-04-16T08:24:46;8.30;99.90
19538;DHT22;9914;51.008;4.300;2023-04-16T08:27:12;8.30;99.90
19538;DHT22;9914;51.008;4.300;2023-04-16T08:29:38;8.50;99.90
19538;DHT22;9914;51.008;4.300;2023-04-16T08:32:03;8.50;99.90
19538;DHT22;9914;51.008;4.300;2023-04-16T08:34:29;8.50;99.90
19538;DHT22;9914;51.008;4.300;2023-04-16T08:36:54;8.50;99.90
19538;DHT22;9914;51.008;4.300;2023-04-16T08:39:20;8.50;99.90
19538;DHT22;9914;51.008;4.300;2023-04-16T08:41:46;8.50;99.90
19538;DHT22;9914;51.008;4.300;2023-04-16T08:44:32;8.60;99.90
19538;DHT22;9914;51.008;4.300;2023-04-16T08:46:59;8.70;99.90
19538;DHT22;9914;51.008;4.300;2023-04-16T08:49:25;8.90;99.90
19538;DHT22;9914;51.008;4.300;2023-04-16T08:51:55;8.90;99.90
19538;DHT22;9914;51.008;4.300;2023-04-16T08:54:31;8.90;99.90
19538;DHT22;9914;51.008;4.300;2023-04-16T08:56:59;8.80;99.90
19538;DHT22;9914;51.008;4.300;2023-04-16T08:59:27;8.80;99.90
19538;DHT22;9914;51.008;4.300;2023-04-16T09:01:59;8.80;99.90
19538;DHT22;9914;51.008;4.300;2023-04-16T09:04:27;8.90;99.90
19538;DHT22;9914;51.008;4.300;2023-04-16T09:06:54;8.80;99.90
19538;DHT22;9914;51.008;4.300;2023-04-16T09:09:21;8.90;99.90
19538;DHT22;9914;51.008;4.300;2023-04-16T09:11:50;8.90;99.90
19538;DHT22;9914;51.008;4.300;2023-04-16T09:14:16;8.90;99.90
19538;DHT22;9914;51.008;4.300;2023-04-16T09:16:44;8.90;99.90
19538;DHT22;9914;51.008;4.300;2023-04-16T09:19:09;9.00;99.90
19538;DHT22;9914;51.008;4.300;2023-04-16T09:21:35;9.00;99.90
19538;DHT22;9914;51.008;4.300;2023-04-16T09:24:01;9.10;99.90
19538;DHT22;9914;51.008;4.300;2023-04-16T09:26:27;9.10;99.90
19538;DHT22;9914;51.008;4.300;2023-04-16T09:28:54;9.10;99.90
19538;DHT22;9914;51.008;4.300;2023-04-16T09:31:20;9.10;99.90
19538;DHT22;9914;51.008;4.300;2023-04-16T09:34:06;9.10;99.90
19538;DHT22;9914;51.008;4.300;2023-04-16T09:36:32;9.10;99.90
19538;DHT22;9914;51.008;4.300;2023-04-16T09:38:58;9.50;99.90
19538;DHT22;9914;51.008;4.300;2023-04-16T09:41:29;9.80;99.90
19538;DHT22;9914;51.008;4.300;2023-04-16T09:44:00;9.40;99.90
19538;DHT22;9914;51.008;4.300;2023-04-16T09:46:30;9.20;99.90
19538;DHT22;9914;51.008;4.300;2023-04-16T09:48:56;9.10;99.90
19538;DHT22;9914;51.008;4.300;2023-04-16T09:51:22;9.20;99.90
19538;DHT22;9914;51.008;4.300;2023-04-16T09:53:51;9.10;99.90
19538;DHT22;9914;51.008;4.300;2023-04-16T09:56:22;9.50;99.90
19538;DHT22;9914;51.008;4.300;2023-04-16T09:58:49;9.40;99.90
19538;DHT22;9914;51.008;4.300;2023-04-16T10:01:16;9.30;99.90
19538;DHT22;9914;51.008;4.300;2023-04-16T10:03:42;9.20;99.90
19538;DHT22;9914;51.008;4.300;2023-04-16T10:06:17;9.20;99.90
19538;DHT22;9914;51.008;4.300;2023-04-16T10:08:49;9.30;99.90
19538;DHT22;9914;51.008;4.300;2023-04-16T10:11:15;9.20;99.90
19538;DHT22;9914;51.008;4.300;2023-04-16T10:13:42;9.30;99.90
19538;DHT22;9914;51.008;4.300;2023-04-16T10:16:08;9.60;99.90
19538;DHT22;9914;51.008;4.300;2023-04-16T10:18:38;9.90;99.90
19538;DHT22;9914;51.008;4.300;2023-04-16T10:21:04;9.50;99.90
19538;DHT22;9914;51.008;4.300;2023-04-16T10:23:31;9.50;99.90
19538;DHT22;9914;51.008;4.300;2023-04-16T10:25:57;9.50;99.90
19538;DHT22;9914;51.008;4.300;2023-04-16T10:28:24;9.40;99.90
19538;DHT22;9914;51.008;4.300;2023-04-16T10:30:50;9.40;99.90
19538;DHT22;9914;51.008;4.300;2023-04-16T10:33:28;9.50;99.90
19538;DHT22;9914;51.008;4.300;2023-04-16T10:38:44;9.40;99.90
19538;DHT22;9914;51.008;4.300;2023-04-16T10:41:10;9.40;99.90
19538;DHT22;9914;51.008;4.300;2023-04-16T10:43:41;9.30;99.90
19538;DHT22;9914;51.008;4.300;2023-04-16T10:46:23;9.30;99.90
19538;DHT22;9914;51.008;4.300;2023-04-16T10:48:52;9.20;99.90
19538;DHT22;9914;51.008;4.300;2023-04-16T10:51:32;9.30;99.90
19538;DHT22;9914;51.008;4.300;2023-04-16T10:56:34;9.40;99.90
19538;DHT22;9914;51.008;4.300;2023-04-16T10:59:03;9.50;99.90
19538;DHT22;9914;51.008;4.300;2023-04-16T11:04:01;9.60;99.90
19538;DHT22;9914;51.008;4.300;2023-04-16T11:12:22;9.50;99.90
19538;DHT22;9914;51.008;4.300;2023-04-16T11:15:02;9.40;99.90
19538;DHT22;9914;51.008;4.300;2023-04-16T11:20:28;9.60;99.90
19538;DHT22;9914;51.008;4.300;2023-04-16T11:22:54;9.70;99.90
19538;DHT22;9914;51.008;4.300;2023-04-16T11:25:24;10.30;99.90
19538;DHT22;9914;51.008;4.300;2023-04-16T11:27:50;10.30;99.90
19538;DHT22;9914;51.008;4.300;2023-04-16T11:30:17;9.90;99.90
19538;DHT22;9914;51.008;4.300;2023-04-16T11:32:43;9.80;99.90
19538;DHT22;9914;51.008;4.300;2023-04-16T11:37:40;9.80;99.90
19538;DHT22;9914;51.008;4.300;2023-04-16T11:40:07;9.90;99.90
19538;DHT22;9914;51.008;4.300;2023-04-16T11:42:34;10.10;99.90
19538;DHT22;9914;51.008;4.300;2023-04-16T11:45:05;10.10;99.90
19538;DHT22;9914;51.008;4.300;2023-04-16T11:47:31;10.10;99.90
19538;DHT22;9914;51.008;4.300;2023-04-16T11:49:57;9.80;99.90
19538;DHT22;9914;51.008;4.300;2023-04-16T11:52:39;9.90;99.90
19538;DHT22;9914;51.008;4.300;2023-04-16T11:55:05;9.80;99.90
19538;DHT22;9914;51.008;4.300;2023-04-16T11:57:31;9.70;99.90
19538;DHT22;9914;51.008;4.300;2023-04-16T11:59:58;9.80;99.90
19538;DHT22;9914;51.008;4.300;2023-04-16T12:02:56;9.90;99.90
19538;DHT22;9914;51.008;4.300;2023-04-16T12:05:32;9.80;99.90
19538;DHT22;9914;51.008;4.300;2023-04-16T12:08:03;9.80;99.90
19538;DHT22;9914;51.008;4.300;2023-04-16T12:10:31;9.90;99.90
19538;DHT22;9914;51.008;4.300;2023-04-16T12:13:12;9.90;99.90
19538;DHT22;9914;51.008;4.300;2023-04-16T12:18:11;9.80;99.90
19538;DHT22;9914;51.008;4.300;2023-04-16T12:20:40;9.80;99.90
19538;DHT22;9914;51.008;4.300;2023-04-16T12:23:06;10.00;99.90
19538;DHT22;9914;51.008;4.300;2023-04-16T12:25:33;10.00;99.90
19538;DHT22;9914;51.008;4.300;2023-04-16T12:27:58;10.10;99.90
19538;DHT22;9914;51.008;4.300;2023-04-16T12:30:25;10.20;99.90
19538;DHT22;9914;51.008;4.300;2023-04-16T12:32:53;10.20;99.90
19538;DHT22;9914;51.008;4.300;2023-04-16T12:35:38;10.30;99.90
19538;DHT22;9914;51.008;4.300;2023-04-16T12:38:06;10.40;99.90
19538;DHT22;9914;51.008;4.300;2023-04-16T12:40:32;10.70;99.90
19538;DHT22;9914;51.008;4.300;2023-04-16T12:42:58;11.00;99.90
19538;DHT22;9914;51.008;4.300;2023-04-16T12:45:24;10.60;99.90
19538;DHT22;9914;51.008;4.300;2023-04-16T12:47:50;10.70;99.90
19538;DHT22;9914;51.008;4.300;2023-04-16T12:50:16;11.20;99.90
19538;DHT22;9914;51.008;4.300;2023-04-16T12:52:41;11.00;99.90
19538;DHT22;9914;51.008;4.300;2023-04-16T12:55:07;10.70;99.90
19538;DHT22;9914;51.008;4.300;2023-04-16T12:57:33;10.50;99.90
19538;DHT22;9914;51.008;4.300;2023-04-16T12:59:59;10.50;99.90
19538;DHT22;9914;51.008;4.300;2023-04-16T13:02:24;10.50;99.90
19538;DHT22;9914;51.008;4.300;2023-04-16T13:04:51;10.50;99.90
19538;DHT22;9914;51.008;4.300;2023-04-16T13:07:17;10.70;99.90
19538;DHT22;9914;51.008;4.300;2023-04-16T13:09:43;10.60;99.90
19538;DHT22;9914;51.008;4.300;2023-04-16T13:12:09;10.90;99.90
19538;DHT22;9914;51.008;4.300;2023-04-16T13:14:36;10.90;99.90
19538;DHT22;9914;51.008;4.300;2023-04-16T13:17:01;10.70;99.90
19538;DHT22;9914;51.008;4.300;2023-04-16T13:19:28;10.60;99.90
19538;DHT22;9914;51.008;4.300;2023-04-16T13:21:54;10.70;99.90
19538;DHT22;9914;51.008;4.300;2023-04-16T13:24:20;10.90;99.90
19538;DHT22;9914;51.008;4.300;2023-04-16T13:26:45;11.00;99.90
19538;DHT22;9914;51.008;4.300;2023-04-16T13:29:11;11.10;99.90
19538;DHT22;9914;51.008;4.300;2023-04-16T13:31:37;11.40;99.90
19538;DHT22;9914;51.008;4.300;2023-04-16T13:34:03;11.50;99.90
19538;DHT22;9914;51.008;4.300;2023-04-16T13:36:29;11.50;99.90
19538;DHT22;9914;51.008;4.300;2023-04-16T13:38:57;11.40;99.90
19538;DHT22;9914;51.008;4.300;2023-04-16T13:41:22;11.90;99.90
19538;DHT22;9914;51.008;4.300;2023-04-16T13:43:48;11.80;99.90
19538;DHT22;9914;51.008;4.300;2023-04-16T13:46:14;11.60;99.90
19538;DHT22;9914;51.008;4.300;2023-04-16T13:48:39;11.70;99.90
19538;DHT22;9914;51.008;4.300;2023-04-16T13:51:05;11.70;99.90
19538;DHT22;9914;51.008;4.300;2023-04-16T13:53:31;11.50;99.90
19538;DHT22;9914;51.008;4.300;2023-04-16T13:55:56;11.40;99.90
19538;DHT22;9914;51.008;4.300;2023-04-16T13:58:23;11.40;99.90
19538;DHT22;9914;51.008;4.300;2023-04-16T14:00:48;11.70;99.90
19538;DHT22;9914;51.008;4.300;2023-04-16T14:03:14;11.90;99.90
19538;DHT22;9914;51.008;4.300;2023-04-16T14:05:40;12.00;99.90
19538;DHT22;9914;51.008;4.300;2023-04-16T14:08:05;12.10;99.90
19538;DHT22;9914;51.008;4.300;2023-04-16T14:10:31;12.00;99.90
19538;DHT22;9914;51.008;4.300;2023-04-16T14:12:57;11.70;99.90
19538;DHT22;9914;51.008;4.300;2023-04-16T14:15:23;11.60;99.90
19538;DHT22;9914;51.008;4.300;2023-04-16T14:17:51;11.70;99.90
19538;DHT22;9914;51.008;4.300;2023-04-16T14:20:16;11.90;99.90
19538;DHT22;9914;51.008;4.300;2023-04-16T14:22:42;11.90;99.90
19538;DHT22;9914;51.008;4.300;2023-04-16T14:25:08;11.90;99.90
19538;DHT22;9914;51.008;4.300;2023-04-16T14:27:34;11.90;99.90
19538;DHT22;9914;51.008;4.300;2023-04-16T14:30:00;11.90;99.90
19538;DHT22;9914;51.008;4.300;2023-04-16T14:32:26;11.90;99.90
19538;DHT22;9914;51.008;4.300;2023-04-16T14:34:51;11.70;99.90
19538;DHT22;9914;51.008;4.300;2023-04-16T14:37:17;11.70;99.90
19538;DHT22;9914;51.008;4.300;2023-04-16T14:39:43;11.70;99.90
19538;DHT22;9914;51.008;4.300;2023-04-16T14:42:09;11.90;99.90
19538;DHT22;9914;51.008;4.300;2023-04-16T14:44:35;11.80;99.90
19538;DHT22;9914;51.008;4.300;2023-04-16T14:47:01;11.70;99.90
19538;DHT22;9914;51.008;4.300;2023-04-16T14:49:26;11.40;99.90
19538;DHT22;9914;51.008;4.300;2023-04-16T14:51:52;11.50;99.90
19538;DHT22;9914;51.008;4.300;2023-04-16T14:54:18;11.70;99.90
19538;DHT22;9914;51.008;4.300;2023-04-16T14:56:45;11.40;99.90
19538;DHT22;9914;51.008;4.300;2023-04-16T14:59:11;11.20;99.90
19538;DHT22;9914;51.008;4.300;2023-04-16T15:01:37;11.10;99.90
19538;DHT22;9914;51.008;4.300;2023-04-16T15:04:06;11.10;99.90
19538;DHT22;9914;51.008;4.300;2023-04-16T15:06:32;11.10;99.90
19538;DHT22;9914;51.008;4.300;2023-04-16T15:08:58;11.30;99.90
19538;DHT22;9914;51.008;4.300;2023-04-16T15:11:24;11.30;99.90
19538;DHT22;9914;51.008;4.300;2023-04-16T15:13:50;11.50;99.90
19538;DHT22;9914;51.008;4.300;2023-04-16T15:16:16;11.30;99.90
19538;DHT22;9914;51.008;4.300;2023-04-16T15:18:42;11.40;99.90
19538;DHT22;9914;51.008;4.300;2023-04-16T15:21:07;11.40;99.90
19538;DHT22;9914;51.008;4.300;2023-04-16T15:23:33;11.50;99.90
19538;DHT22;9914;51.008;4.300;2023-04-16T15:25:59;11.30;99.90
19538;DHT22;9914;51.008;4.300;2023-04-16T15:28:24;11.40;99.90
19538;DHT22;9914;51.008;4.300;2023-04-16T15:30:51;11.50;99.90
19538;DHT22;9914;51.008;4.300;2023-04-16T15:33:19;11.60;99.90
19538;DHT22;9914;51.008;4.300;2023-04-16T15:35:45;11.60;99.90
19538;DHT22;9914;51.008;4.300;2023-04-16T15:38:11;11.20;99.90
19538;DHT22;9914;51.008;4.300;2023-04-16T15:40:37;11.20;99.90
19538;DHT22;9914;51.008;4.300;2023-04-16T15:43:02;11.10;99.90
19538;DHT22;9914;51.008;4.300;2023-04-16T15:45:28;11.10;99.90
19538;DHT22;9914;51.008;4.300;2023-04-16T15:47:54;11.20;99.90
19538;DHT22;9914;51.008;4.300;2023-04-16T15:50:20;11.20;99.90
19538;DHT22;9914;51.008;4.300;2023-04-16T15:52:46;11.20;99.90
19538;DHT22;9914;51.008;4.300;2023-04-16T15:55:12;11.10;99.90
19538;DHT22;9914;51.008;4.300;2023-04-16T15:57:38;11.00;99.90
19538;DHT22;9914;51.008;4.300;2023-04-16T16:00:04;11.20;99.90
19538;DHT22;9914;51.008;4.300;2023-04-16T16:02:38;11.20;99.90
19538;DHT22;9914;51.008;4.300;2023-04-16T16:05:04;11.30;99.90
19538;DHT22;9914;51.008;4.300;2023-04-16T16:07:32;11.30;99.90
19538;DHT22;9914;51.008;4.300;2023-04-16T16:09:58;11.40;99.90
19538;DHT22;9914;51.008;4.300;2023-04-16T16:12:23;11.40;99.90
19538;DHT22;9914;51.008;4.300;2023-04-16T16:14:49;11.30;99.90